sensor_id;sensor_type;location;lat;lon;timestamp;temperature;humidity
9410;DHT22;4744;52.576;13.568;2023-02-28T00:00:33;0.80;1.00
9410;DHT22;4744;52.576;13.568;2023-02-28T00:03:00;0.80;1.00
9410;DHT22;4744;52.576;13.568;2023-02-28T00:05:28;0.80;1.00
9410;DHT22;4744;52.576;13.568;2023-02-28T00:07:55;0.80;1.00
9410;DHT22;4744;52.576;13.568;2023-02-28T00:10:25;0.70;1.00
9410;DHT22;4744;52.576;13.568;2023-02-28T00:12:54;0.70;1.00
9410;DHT22;4744;52.576;13.568;2023-02-28T00:15:24;0.70;1.00
9410;DHT22;4744;52.576;13.568;2023-02-28T00:17:51;0.70;1.00
9410;DHT22;4744;52.576;13.568;2023-02-28T00:20:19;0.80;1.00
9410;DHT22;4744;52.576;13.568;2023-02-28T00:22:48;0.70;1.00
9410;DHT22;4744;52.576;13.568;2023-02-28T00:25:17;0.80;1.00
9410;DHT22;4744;52.576;13.568;2023-02-28T00:27:45;0.80;1.00
9410;DHT22;4744;52.576;13.568;2023-02-28T00:30:15;0.80;1.00
9410;DHT22;4744;52.576;13.568;2023-02-28T00:32:44;0.90;1.00
9410;DHT22;4744;52.576;13.568;2023-02-28T00:35:11;0.90;1.00
9410;DHT22;4744;52.576;13.568;2023-02-28T00:37:39;0.80;1.00
9410;DHT22;4744;52.576;13.568;2023-02-28T00:40:07;0.80;1.00
9410;DHT22;4744;52.576;13.568;2023-02-28T00:42:35;0.70;1.00
9410;DHT22;4744;52.576;13.568;2023-02-28T00:45:03;0.70;1.00
9410;DHT22;4744;52.576;13.568;2023-02-28T00:47:30;0.70;1.00
9410;DHT22;4744;52.576;13.568;2023-02-28T00:49:59;0.70;1.00
9410;DHT22;4744;52.576;13.568;2023-02-28T00:52:26;0.70;1.00
9410;DHT22;4744;52.576;13.568;2023-02-28T00:54:53;0.70;1.00
9410;DHT22;4744;52.576;13.568;2023-02-28T00:57:20;0.60;1.00
9410;DHT22;4744;52.576;13.568;2023-02-28T00:59:47;0.60;1.00
9410;DHT22;4744;52.576;13.568;2023-02-28T01:02:14;0.60;1.00
9410;DHT22;4744;52.576;13.568;2023-02-28T01:04:41;0.50;1.00
9410;DHT22;4744;52.576;13.568;2023-02-28T01:07:09;0.50;1.00
9410;DHT22;4744;52.576;13.568;2023-02-28T01:09:36;0.50;1.00
9410;DHT22;4744;52.576;13.568;2023-02-28T01:12:04;0.50;1.00
9410;DHT22;4744;52.576;13.568;2023-02-28T01:14:30;0.50;1.00
9410;DHT22;4744;52.576;13.568;2023-02-28T01:16:57;0.50;1.00
9410;DHT22;4744;52.576;13.568;2023-02-28T01:19:24;0.50;1.00
9410;DHT22;4744;52.576;13.568;2023-02-28T01:21:51;0.40;1.00
9410;DHT22;4744;52.576;13.568;2023-02-28T01:24:19;0.40;1.00
9410;DHT22;4744;52.576;13.568;2023-02-28T01:26:46;0.30;1.00
9410;DHT22;4744;52.576;13.568;2023-02-28T01:29:13;0.30;1.00
9410;DHT22;4744;52.576;13.568;2023-02-28T01:31:41;0.30;1.00
9410;DHT22;4744;52.576;13.568;2023-02-28T01:34:08;0.20;1.00
9410;DHT22;4744;52.576;13.568;2023-02-28T01:36:35;0.20;1.00
9410;DHT22;4744;52.576;13.568;2023-02-28T01:39:02;0.20;1.00
9410;DHT22;4744;52.576;13.568;2023-02-28T01:41:32;0.10;1.00
9410;DHT22;4744;52.576;13.568;2023-02-28T01:44:02;0.10;1.00
9410;DHT22;4744;52.576;13.568;2023-02-28T01:46:31;0.00;1.00
9410;DHT22;4744;52.576;13.568;2023-02-28T01:49:04;0.00;1.00
9410;DHT22;4744;52.576;13.568;2023-02-28T01:51:37;-0.10;1.00
9410;DHT22;4744;52.576;13.568;2023-02-28T01:54:09;-0.20;1.00
9410;DHT22;4744;52.576;13.568;2023-02-28T01:56:43;-0.20;1.00
9410;DHT22;4744;52.576;13.568;2023-02-28T01:59:14;-0.30;1.00
9410;DHT22;4744;52.576;13.568;2023-02-28T02:01:46;-0.30;1.00
9410;DHT22;4744;52.576;13.568;2023-02-28T02:04:13;-0.40;1.00
9410;DHT22;4744;52.576;13.568;2023-02-28T02:06:43;-0.40;1.00
9410;DHT22;4744;52.576;13.568;2023-02-28T02:09:11;-0.50;1.00
9410;DHT22;4744;52.576;13.568;2023-02-28T02:11:41;-0.50;1.00
9410;DHT22;4744;52.576;13.568;2023-02-28T02:14:31;-0.50;1.00
9410;DHT22;4744;52.576;13.568;2023-02-28T02:17:14;-0.60;1.00
9410;DHT22;4744;52.576;13.568;2023-02-28T02:20:19;-0.60;1.00
9410;DHT22;4744;52.576;13.568;2023-02-28T02:23:22;-0.70;1.00
9410;DHT22;4744;52.576;13.568;2023-02-28T02:25:54;-0.70;1.00
9410;DHT22;4744;52.576;13.568;2023-02-28T02:28:49;-0.70;1.00
9410;DHT22;4744;52.576;13.568;2023-02-28T02:34:32;-0.80;1.00
9410;DHT22;4744;52.576;13.568;2023-02-28T02:37:10;-0.80;1.00
9410;DHT22;4744;52.576;13.568;2023-02-28T02:39:45;-0.80;1.00
9410;DHT22;4744;52.576;13.568;2023-02-28T02:42:18;-0.90;1.00
9410;DHT22;4744;52.576;13.568;2023-02-28T02:44:52;-0.90;1.00
9410;DHT22;4744;52.576;13.568;2023-02-28T02:47:25;-1.00;1.00
9410;DHT22;4744;52.576;13.568;2023-02-28T02:49:57;-0.90;1.00
9410;DHT22;4744;52.576;13.568;2023-02-28T02:52:31;-1.00;1.00
9410;DHT22;4744;52.576;13.568;2023-02-28T02:55:02;-1.00;1.00
9410;DHT22;4744;52.576;13.568;2023-02-28T02:57:33;-1.10;1.00
9410;DHT22;4744;52.576;13.568;2023-02-28T03:00:02;-1.10;1.00
9410;DHT22;4744;52.576;13.568;2023-02-28T03:02:32;-1.10;1.00
9410;DHT22;4744;52.576;13.568;2023-02-28T03:05:04;-1.10;1.00
9410;DHT22;4744;52.576;13.568;2023-02-28T03:07:32;-1.20;1.00
9410;DHT22;4744;52.576;13.568;2023-02-28T03:09:59;-1.20;1.00
9410;DHT22;4744;52.576;13.568;2023-02-28T03:12:33;-1.20;1.00
9410;DHT22;4744;52.576;13.568;2023-02-28T03:15:10;-1.30;1.00
9410;DHT22;4744;52.576;13.568;2023-02-28T03:17:50;-1.30;1.00
9410;DHT22;4744;52.576;13.568;2023-02-28T03:20:32;-1.30;1.00
9410;DHT22;4744;52.576;13.568;2023-02-28T03:23:16;-1.30;1.00
9410;DHT22;4744;52.576;13.568;2023-02-28T03:25:53;-1.30;1.00
9410;DHT22;4744;52.576;13.568;2023-02-28T03:28:29;-1.40;1.00
9410;DHT22;4744;52.576;13.568;2023-02-28T03:31:00;-1.40;1.00
9410;DHT22;4744;52.576;13.568;2023-02-28T03:33:32;-1.40;1.00
9410;DHT22;4744;52.576;13.568;2023-02-28T03:36:06;-1.50;1.00
9410;DHT22;4744;52.576;13.568;2023-02-28T03:38:37;-1.50;1.00
9410;DHT22;4744;52.576;13.568;2023-02-28T03:41:10;-1.60;1.00
9410;DHT22;4744;52.576;13.568;2023-02-28T03:43:43;-1.60;1.00
9410;DHT22;4744;52.576;13.568;2023-02-28T03:46:13;-1.70;1.00
9410;DHT22;4744;52.576;13.568;2023-02-28T03:48:44;-1.70;1.00
9410;DHT22;4744;52.576;13.568;2023-02-28T03:51:17;-1.70;1.00
9410;DHT22;4744;52.576;13.568;2023-02-28T03:53:49;-1.70;1.00
9410;DHT22;4744;52.576;13.568;2023-02-28T03:56:20;-1.80;1.00
9410;DHT22;4744;52.576;13.568;2023-02-28T03:58:53;-1.80;1.00
9410;DHT22;4744;52.576;13.568;2023-02-28T04:01:25;-1.80;1.00
9410;DHT22;4744;52.576;13.568;2023-02-28T04:03:54;-1.80;1.00
9410;DHT22;4744;52.576;13.568;2023-02-28T04:06:23;-1.80;1.00
9410;DHT22;4744;52.576;13.568;2023-02-28T04:08:51;-1.80;1.00
9410;DHT22;4744;52.576;13.568;2023-02-28T04:11:25;-1.80;1.00
9410;DHT22;4744;52.576;13.568;2023-02-28T04:13:54;-1.80;1.00
9410;DHT22;4744;52.576;13.568;2023-02-28T04:16:21;-1.90;1.00
9410;DHT22;4744;52.576;13.568;2023-02-28T04:18:48;-1.90;1.00
9410;DHT22;4744;52.576;13.568;2023-02-28T04:21:14;-2.00;1.00
9410;DHT22;4744;52.576;13.568;2023-02-28T04:23:47;-2.00;1.00
9410;DHT22;4744;52.576;13.568;2023-02-28T04:26:14;-2.00;1.00
9410;DHT22;4744;52.576;13.568;2023-02-28T04:28:41;-2.10;1.00
9410;DHT22;4744;52.576;13.568;2023-02-28T04:31:09;-2.10;1.00
9410;DHT22;4744;52.576;13.568;2023-02-28T04:33:36;-2.10;1.00
9410;DHT22;4744;52.576;13.568;2023-02-28T04:36:05;-2.10;1.00
9410;DHT22;4744;52.576;13.568;2023-02-28T04:38:34;-2.10;1.00
9410;DHT22;4744;52.576;13.568;2023-02-28T04:41:03;-2.20;1.00
9410;DHT22;4744;52.576;13.568;2023-02-28T04:43:31;-2.20;1.00
9410;DHT22;4744;52.576;13.568;2023-02-28T04:46:01;-2.20;1.00
9410;DHT22;4744;52.576;13.568;2023-02-28T04:48:29;-2.20;1.00
9410;DHT22;4744;52.576;13.568;2023-02-28T04:51:00;-2.20;1.00
9410;DHT22;4744;52.576;13.568;2023-02-28T04:53:27;-2.20;1.00
9410;DHT22;4744;52.576;13.568;2023-02-28T04:55:55;-2.20;1.00
9410;DHT22;4744;52.576;13.568;2023-02-28T04:58:23;-2.20;1.00
9410;DHT22;4744;52.576;13.568;2023-02-28T05:00:51;-2.30;1.00
9410;DHT22;4744;52.576;13.568;2023-02-28T05:03:17;-2.20;1.00
9410;DHT22;4744;52.576;13.568;2023-02-28T05:05:46;-2.30;1.00
9410;DHT22;4744;52.576;13.568;2023-02-28T05:08:13;-2.30;1.00
9410;DHT22;4744;52.576;13.568;2023-02-28T05:10:40;-2.40;1.00
9410;DHT22;4744;52.576;13.568;2023-02-28T05:13:08;-2.40;1.00
9410;DHT22;4744;52.576;13.568;2023-02-28T05:15:37;-2.40;1.00
9410;DHT22;4744;52.576;13.568;2023-02-28T05:18:04;-2.40;1.00
9410;DHT22;4744;52.576;13.568;2023-02-28T05:20:31;-2.40;1.00
9410;DHT22;4744;52.576;13.568;2023-02-28T05:22:59;-2.40;1.00
9410;DHT22;4744;52.576;13.568;2023-02-28T05:25:26;-2.40;1.00
9410;DHT22;4744;52.576;13.568;2023-02-28T05:27:53;-2.40;1.00
9410;DHT22;4744;52.576;13.568;2023-02-28T05:30:20;-2.40;1.00
9410;DHT22;4744;52.576;13.568;2023-02-28T05:32:50;-2.50;1.00
9410;DHT22;4744;52.576;13.568;2023-02-28T05:35:18;-2.50;1.00
9410;DHT22;4744;52.576;13.568;2023-02-28T05:37:44;-2.50;1.00
9410;DHT22;4744;52.576;13.568;2023-02-28T05:40:12;-2.50;1.00
9410;DHT22;4744;52.576;13.568;2023-02-28T05:42:40;-2.50;1.00
9410;DHT22;4744;52.576;13.568;2023-02-28T05:45:08;-2.50;1.00
9410;DHT22;4744;52.576;13.568;2023-02-28T05:47:35;-2.50;1.00
9410;DHT22;4744;52.576;13.568;2023-02-28T05:50:05;-2.50;1.00
9410;DHT22;4744;52.576;13.568;2023-02-28T05:52:32;-2.50;1.00
9410;DHT22;4744;52.576;13.568;2023-02-28T05:54:59;-2.60;1.00
9410;DHT22;4744;52.576;13.568;2023-02-28T05:57:26;-2.60;1.00
9410;DHT22;4744;52.576;13.568;2023-02-28T05:59:52;-2.60;1.00
9410;DHT22;4744;52.576;13.568;2023-02-28T06:02:19;-2.60;1.00
9410;DHT22;4744;52.576;13.568;2023-02-28T06:04:46;-2.60;1.00
9410;DHT22;4744;52.576;13.568;2023-02-28T06:07:15;-2.60;1.00
9410;DHT22;4744;52.576;13.568;2023-02-28T06:09:43;-2.50;1.00
9410;DHT22;4744;52.576;13.568;2023-02-28T06:12:10;-2.50;1.00
9410;DHT22;4744;52.576;13.568;2023-02-28T06:14:37;-2.50;1.00
9410;DHT22;4744;52.576;13.568;2023-02-28T06:17:04;-2.50;1.00
9410;DHT22;4744;52.576;13.568;2023-02-28T06:19:31;-2.50;1.00
9410;DHT22;4744;52.576;13.568;2023-02-28T06:21:57;-2.50;1.00
9410;DHT22;4744;52.576;13.568;2023-02-28T06:24:27;-2.50;1.00
9410;DHT22;4744;52.576;13.568;2023-02-28T06:26:54;-2.40;1.00
9410;DHT22;4744;52.576;13.568;2023-02-28T06:29:21;-2.40;1.00
9410;DHT22;4744;52.576;13.568;2023-02-28T06:31:48;-2.50;1.00
9410;DHT22;4744;52.576;13.568;2023-02-28T06:34:15;-2.40;1.00
9410;DHT22;4744;52.576;13.568;2023-02-28T06:36:43;-2.40;1.00
9410;DHT22;4744;52.576;13.568;2023-02-28T06:39:10;-2.40;1.00
9410;DHT22;4744;52.576;13.568;2023-02-28T06:41:39;-2.30;1.00
9410;DHT22;4744;52.576;13.568;2023-02-28T06:44:11;-2.30;1.00
9410;DHT22;4744;52.576;13.568;2023-02-28T06:46:40;-2.30;1.00
9410;DHT22;4744;52.576;13.568;2023-02-28T06:49:08;-2.20;1.00
9410;DHT22;4744;52.576;13.568;2023-02-28T06:51:36;-2.10;1.00
9410;DHT22;4744;52.576;13.568;2023-02-28T06:54:04;-2.10;1.00
9410;DHT22;4744;52.576;13.568;2023-02-28T06:56:34;-2.00;1.00
9410;DHT22;4744;52.576;13.568;2023-02-28T06:59:03;-1.90;1.00
9410;DHT22;4744;52.576;13.568;2023-02-28T07:01:31;-1.90;1.00
9410;DHT22;4744;52.576;13.568;2023-02-28T07:03:58;-1.80;1.00
9410;DHT22;4744;52.576;13.568;2023-02-28T07:06:26;-1.70;1.00
9410;DHT22;4744;52.576;13.568;2023-02-28T07:08:53;-1.60;1.00
9410;DHT22;4744;52.576;13.568;2023-02-28T07:11:22;-1.50;1.00
9410;DHT22;4744;52.576;13.568;2023-02-28T07:13:51;-1.10;1.00
9410;DHT22;4744;52.576;13.568;2023-02-28T07:16:19;-0.30;1.00
9410;DHT22;4744;52.576;13.568;2023-02-28T07:18:46;0.30;1.00
9410;DHT22;4744;52.576;13.568;2023-02-28T07:21:14;0.70;1.00
9410;DHT22;4744;52.576;13.568;2023-02-28T07:23:41;1.30;1.00
9410;DHT22;4744;52.576;13.568;2023-02-28T07:26:12;2.50;1.00
9410;DHT22;4744;52.576;13.568;2023-02-28T07:28:40;3.80;1.00
9410;DHT22;4744;52.576;13.568;2023-02-28T07:31:09;4.90;1.00
9410;DHT22;4744;52.576;13.568;2023-02-28T07:33:37;5.80;1.00
9410;DHT22;4744;52.576;13.568;2023-02-28T07:36:07;6.40;1.00
9410;DHT22;4744;52.576;13.568;2023-02-28T07:38:35;6.90;1.00
9410;DHT22;4744;52.576;13.568;2023-02-28T07:41:02;7.50;1.00
9410;DHT22;4744;52.576;13.568;2023-02-28T07:43:31;7.70;1.00
9410;DHT22;4744;52.576;13.568;2023-02-28T07:46:02;7.50;1.00
9410;DHT22;4744;52.576;13.568;2023-02-28T07:48:29;6.90;1.00
9410;DHT22;4744;52.576;13.568;2023-02-28T07:50:58;6.40;1.00
9410;DHT22;4744;52.576;13.568;2023-02-28T07:53:25;5.90;1.00
9410;DHT22;4744;52.576;13.568;2023-02-28T07:55:55;5.40;1.00
9410;DHT22;4744;52.576;13.568;2023-02-28T07:58:22;5.00;1.00
9410;DHT22;4744;52.576;13.568;2023-02-28T08:00:49;4.70;1.00
9410;DHT22;4744;52.576;13.568;2023-02-28T08:03:17;4.50;1.00
9410;DHT22;4744;52.576;13.568;2023-02-28T08:05:44;4.20;1.00
9410;DHT22;4744;52.576;13.568;2023-02-28T08:08:12;3.80;1.00
9410;DHT22;4744;52.576;13.568;2023-02-28T08:10:39;3.60;1.00
9410;DHT22;4744;52.576;13.568;2023-02-28T08:13:06;3.50;1.00
9410;DHT22;4744;52.576;13.568;2023-02-28T08:15:33;3.40;1.00
9410;DHT22;4744;52.576;13.568;2023-02-28T08:18:00;3.30;1.00
9410;DHT22;4744;52.576;13.568;2023-02-28T08:20:27;3.20;1.00
9410;DHT22;4744;52.576;13.568;2023-02-28T08:22:54;3.00;1.00
9410;DHT22;4744;52.576;13.568;2023-02-28T08:25:22;3.00;1.00
9410;DHT22;4744;52.576;13.568;2023-02-28T08:27:50;3.00;1.00
9410;DHT22;4744;52.576;13.568;2023-02-28T08:30:18;3.00;1.00
9410;DHT22;4744;52.576;13.568;2023-02-28T08:32:45;3.00;1.00
9410;DHT22;4744;52.576;13.568;2023-02-28T08:35:12;3.10;1.00
9410;DHT22;4744;52.576;13.568;2023-02-28T08:37:39;3.40;1.00
9410;DHT22;4744;52.576;13.568;2023-02-28T08:40:07;4.00;1.00
9410;DHT22;4744;52.576;13.568;2023-02-28T08:42:35;4.80;1.00
9410;DHT22;4744;52.576;13.568;2023-02-28T08:45:03;5.00;1.00
9410;DHT22;4744;52.576;13.568;2023-02-28T08:47:30;5.00;1.00
9410;DHT22;4744;52.576;13.568;2023-02-28T08:49:57;5.10;1.00
9410;DHT22;4744;52.576;13.568;2023-02-28T08:52:24;4.90;1.00
9410;DHT22;4744;52.576;13.568;2023-02-28T08:54:50;5.00;1.00
9410;DHT22;4744;52.576;13.568;2023-02-28T08:57:17;5.50;1.00
9410;DHT22;4744;52.576;13.568;2023-02-28T08:59:46;6.10;1.00
9410;DHT22;4744;52.576;13.568;2023-02-28T09:02:13;6.90;1.00
9410;DHT22;4744;52.576;13.568;2023-02-28T09:04:40;7.30;1.00
9410;DHT22;4744;52.576;13.568;2023-02-28T09:07:08;7.70;1.00
9410;DHT22;4744;52.576;13.568;2023-02-28T09:09:35;9.10;1.00
9410;DHT22;4744;52.576;13.568;2023-02-28T09:12:02;10.50;1.00
9410;DHT22;4744;52.576;13.568;2023-02-28T09:14:29;11.10;1.00
9410;DHT22;4744;52.576;13.568;2023-02-28T09:16:58;11.20;1.00
9410;DHT22;4744;52.576;13.568;2023-02-28T09:19:25;10.80;1.00
9410;DHT22;4744;52.576;13.568;2023-02-28T09:21:51;10.60;1.00
9410;DHT22;4744;52.576;13.568;2023-02-28T09:24:19;10.50;1.00
9410;DHT22;4744;52.576;13.568;2023-02-28T09:26:46;9.90;1.00
9410;DHT22;4744;52.576;13.568;2023-02-28T09:29:13;9.60;1.00
9410;DHT22;4744;52.576;13.568;2023-02-28T09:31:42;9.70;1.00
9410;DHT22;4744;52.576;13.568;2023-02-28T09:34:10;10.10;1.00
9410;DHT22;4744;52.576;13.568;2023-02-28T09:36:37;10.40;1.00
9410;DHT22;4744;52.576;13.568;2023-02-28T09:39:04;11.60;1.00
9410;DHT22;4744;52.576;13.568;2023-02-28T09:41:37;12.80;1.00
9410;DHT22;4744;52.576;13.568;2023-02-28T09:44:16;13.50;1.00
9410;DHT22;4744;52.576;13.568;2023-02-28T09:46:48;13.60;1.00
9410;DHT22;4744;52.576;13.568;2023-02-28T09:49:20;13.40;1.00
9410;DHT22;4744;52.576;13.568;2023-02-28T09:51:51;12.70;1.00
9410;DHT22;4744;52.576;13.568;2023-02-28T09:54:23;11.70;1.00
9410;DHT22;4744;52.576;13.568;2023-02-28T09:56:52;11.70;1.00
9410;DHT22;4744;52.576;13.568;2023-02-28T09:59:31;11.70;1.00
9410;DHT22;4744;52.576;13.568;2023-02-28T10:02:04;11.00;1.00
9410;DHT22;4744;52.576;13.568;2023-02-28T10:04:43;10.70;1.00
9410;DHT22;4744;52.576;13.568;2023-02-28T10:07:29;11.30;1.00
9410;DHT22;4744;52.576;13.568;2023-02-28T10:10:06;11.20;1.00
9410;DHT22;4744;52.576;13.568;2023-02-28T10:12:40;11.10;1.00
9410;DHT22;4744;52.576;13.568;2023-02-28T10:15:14;11.30;1.00
9410;DHT22;4744;52.576;13.568;2023-02-28T10:17:43;11.50;1.00
9410;DHT22;4744;52.576;13.568;2023-02-28T10:20:18;11.30;1.00
9410;DHT22;4744;52.576;13.568;2023-02-28T10:22:53;10.70;1.00
9410;DHT22;4744;52.576;13.568;2023-02-28T10:25:25;10.50;1.00
9410;DHT22;4744;52.576;13.568;2023-02-28T10:27:54;11.00;1.00
9410;DHT22;4744;52.576;13.568;2023-02-28T10:30:24;10.60;1.00
9410;DHT22;4744;52.576;13.568;2023-02-28T10:32:52;10.10;1.00
9410;DHT22;4744;52.576;13.568;2023-02-28T10:35:23;9.70;1.00
9410;DHT22;4744;52.576;13.568;2023-02-28T10:37:53;10.00;1.00
9410;DHT22;4744;52.576;13.568;2023-02-28T10:40:31;10.20;1.00
9410;DHT22;4744;52.576;13.568;2023-02-28T10:43:00;9.90;1.00
9410;DHT22;4744;52.576;13.568;2023-02-28T10:45:29;9.40;1.00
9410;DHT22;4744;52.576;13.568;2023-02-28T10:47:58;9.60;1.00
9410;DHT22;4744;52.576;13.568;2023-02-28T10:50:30;9.80;1.00
9410;DHT22;4744;52.576;13.568;2023-02-28T10:53:13;9.50;1.00
9410;DHT22;4744;52.576;13.568;2023-02-28T10:55:41;9.30;1.00
9410;DHT22;4744;52.576;13.568;2023-02-28T10:58:21;9.50;1.00
9410;DHT22;4744;52.576;13.568;2023-02-28T11:00:48;10.00;1.00
9410;DHT22;4744;52.576;13.568;2023-02-28T11:03:25;10.40;1.00
9410;DHT22;4744;52.576;13.568;2023-02-28T11:05:54;9.80;1.00
9410;DHT22;4744;52.576;13.568;2023-02-28T11:08:21;9.70;1.00
9410;DHT22;4744;52.576;13.568;2023-02-28T11:10:53;9.60;1.00
9410;DHT22;4744;52.576;13.568;2023-02-28T11:13:24;9.80;1.00
9410;DHT22;4744;52.576;13.568;2023-02-28T11:15:53;10.10;1.00
9410;DHT22;4744;52.576;13.568;2023-02-28T11:18:27;9.80;1.00
9410;DHT22;4744;52.576;13.568;2023-02-28T11:20:58;9.70;1.00
9410;DHT22;4744;52.576;13.568;2023-02-28T11:23:27;9.70;1.00
9410;DHT22;4744;52.576;13.568;2023-02-28T11:25:58;9.10;1.00
9410;DHT22;4744;52.576;13.568;2023-02-28T11:28:28;8.80;1.00
9410;DHT22;4744;52.576;13.568;2023-02-28T11:33:27;7.90;1.00
9410;DHT22;4744;52.576;13.568;2023-02-28T11:36:00;7.40;1.00
9410;DHT22;4744;52.576;13.568;2023-02-28T11:38:28;7.40;1.00
9410;DHT22;4744;52.576;13.568;2023-02-28T11:41:09;7.40;1.00
9410;DHT22;4744;52.576;13.568;2023-02-28T11:43:49;7.50;1.00
9410;DHT22;4744;52.576;13.568;2023-02-28T11:46:24;7.40;1.00
9410;DHT22;4744;52.576;13.568;2023-02-28T11:49:02;7.30;1.00
9410;DHT22;4744;52.576;13.568;2023-02-28T11:51:42;7.20;1.00
9410;DHT22;4744;52.576;13.568;2023-02-28T11:54:35;7.10;1.00
9410;DHT22;4744;52.576;13.568;2023-02-28T11:57:20;7.00;1.00
9410;DHT22;4744;52.576;13.568;2023-02-28T11:59:57;6.90;1.00
9410;DHT22;4744;52.576;13.568;2023-02-28T12:02:30;6.80;1.00
9410;DHT22;4744;52.576;13.568;2023-02-28T12:05:10;6.80;1.00
9410;DHT22;4744;52.576;13.568;2023-02-28T12:07:50;6.70;1.00
9410;DHT22;4744;52.576;13.568;2023-02-28T12:10:23;6.60;1.00
9410;DHT22;4744;52.576;13.568;2023-02-28T12:13:04;6.50;1.00
9410;DHT22;4744;52.576;13.568;2023-02-28T12:19:18;6.30;1.00
9410;DHT22;4744;52.576;13.568;2023-02-28T12:22:12;6.20;1.00
9410;DHT22;4744;52.576;13.568;2023-02-28T12:27:43;6.10;1.00
9410;DHT22;4744;52.576;13.568;2023-02-28T12:30:17;6.10;1.00
9410;DHT22;4744;52.576;13.568;2023-02-28T12:32:48;6.30;1.00
9410;DHT22;4744;52.576;13.568;2023-02-28T12:35:19;6.20;1.00
9410;DHT22;4744;52.576;13.568;2023-02-28T12:37:53;6.30;1.00
9410;DHT22;4744;52.576;13.568;2023-02-28T12:40:27;6.50;1.00
9410;DHT22;4744;52.576;13.568;2023-02-28T12:42:58;6.60;1.00
9410;DHT22;4744;52.576;13.568;2023-02-28T12:45:35;6.70;1.00
9410;DHT22;4744;52.576;13.568;2023-02-28T12:48:09;6.70;1.00
9410;DHT22;4744;52.576;13.568;2023-02-28T12:50:43;6.70;1.00
9410;DHT22;4744;52.576;13.568;2023-02-28T12:53:17;6.80;1.00
9410;DHT22;4744;52.576;13.568;2023-02-28T12:55:55;7.00;1.00
9410;DHT22;4744;52.576;13.568;2023-02-28T12:58:28;7.00;1.00
9410;DHT22;4744;52.576;13.568;2023-02-28T13:04:28;6.90;1.00
9410;DHT22;4744;52.576;13.568;2023-02-28T13:07:17;7.00;1.00
9410;DHT22;4744;52.576;13.568;2023-02-28T13:09:55;7.10;1.00
9410;DHT22;4744;52.576;13.568;2023-02-28T13:12:24;7.10;1.00
9410;DHT22;4744;52.576;13.568;2023-02-28T13:15:04;7.20;1.00
9410;DHT22;4744;52.576;13.568;2023-02-28T13:17:32;7.20;1.00
9410;DHT22;4744;52.576;13.568;2023-02-28T13:19:59;7.20;1.00
9410;DHT22;4744;52.576;13.568;2023-02-28T13:22:40;7.20;1.00
9410;DHT22;4744;52.576;13.568;2023-02-28T13:28:12;7.20;1.00
9410;DHT22;4744;52.576;13.568;2023-02-28T13:31:04;7.20;1.00
9410;DHT22;4744;52.576;13.568;2023-02-28T13:33:32;7.20;1.00
9410;DHT22;4744;52.576;13.568;2023-02-28T13:38:55;7.30;1.00
9410;DHT22;4744;52.576;13.568;2023-02-28T13:41:45;7.30;1.00
9410;DHT22;4744;52.576;13.568;2023-02-28T13:44:16;7.30;1.00
9410;DHT22;4744;52.576;13.568;2023-02-28T13:47:19;7.30;1.00
9410;DHT22;4744;52.576;13.568;2023-02-28T13:49:47;7.30;1.00
9410;DHT22;4744;52.576;13.568;2023-02-28T13:52:18;7.30;1.00
9410;DHT22;4744;52.576;13.568;2023-02-28T13:55:21;7.30;1.00
9410;DHT22;4744;52.576;13.568;2023-02-28T13:58:00;7.20;1.00
9410;DHT22;4744;52.576;13.568;2023-02-28T14:00:41;7.20;1.00
9410;DHT22;4744;52.576;13.568;2023-02-28T14:03:32;7.20;1.00
9410;DHT22;4744;52.576;13.568;2023-02-28T14:06:13;7.10;1.00
9410;DHT22;4744;52.576;13.568;2023-02-28T14:08:49;7.10;1.00
9410;DHT22;4744;52.576;13.568;2023-02-28T14:11:27;7.10;1.00
9410;DHT22;4744;52.576;13.568;2023-02-28T14:13:55;7.00;1.00
9410;DHT22;4744;52.576;13.568;2023-02-28T14:16:24;6.90;1.00
9410;DHT22;4744;52.576;13.568;2023-02-28T14:18:58;6.80;1.00
9410;DHT22;4744;52.576;13.568;2023-02-28T14:21:27;6.80;1.00
9410;DHT22;4744;52.576;13.568;2023-02-28T14:24:22;6.80;1.00
9410;DHT22;4744;52.576;13.568;2023-02-28T14:27:13;6.70;1.00
9410;DHT22;4744;52.576;13.568;2023-02-28T14:30:24;6.70;1.00
9410;DHT22;4744;52.576;13.568;2023-02-28T14:33:03;6.60;1.00
9410;DHT22;4744;52.576;13.568;2023-02-28T14:35:50;6.60;1.00
9410;DHT22;4744;52.576;13.568;2023-02-28T14:38:23;6.50;1.00
9410;DHT22;4744;52.576;13.568;2023-02-28T14:40:52;6.50;1.00
9410;DHT22;4744;52.576;13.568;2023-02-28T14:43:22;6.50;1.00
9410;DHT22;4744;52.576;13.568;2023-02-28T14:45:50;6.40;1.00
9410;DHT22;4744;52.576;13.568;2023-02-28T14:48:20;6.30;1.00
9410;DHT22;4744;52.576;13.568;2023-02-28T14:50:54;6.30;1.00
9410;DHT22;4744;52.576;13.568;2023-02-28T14:53:25;6.10;1.00
9410;DHT22;4744;52.576;13.568;2023-02-28T14:55:52;6.00;1.00
9410;DHT22;4744;52.576;13.568;2023-02-28T14:58:24;6.00;1.00
9410;DHT22;4744;52.576;13.568;2023-02-28T15:00:54;5.90;1.00
9410;DHT22;4744;52.576;13.568;2023-02-28T15:03:24;5.90;1.00
9410;DHT22;4744;52.576;13.568;2023-02-28T15:05:55;5.80;1.00
9410;DHT22;4744;52.576;13.568;2023-02-28T15:08:24;5.80;1.00
9410;DHT22;4744;52.576;13.568;2023-02-28T15:10:54;5.80;1.00
9410;DHT22;4744;52.576;13.568;2023-02-28T15:13:23;5.70;1.00
9410;DHT22;4744;52.576;13.568;2023-02-28T15:15:54;5.60;1.00
9410;DHT22;4744;52.576;13.568;2023-02-28T15:18:30;5.60;1.00
9410;DHT22;4744;52.576;13.568;2023-02-28T15:21:01;5.60;1.00
9410;DHT22;4744;52.576;13.568;2023-02-28T15:23:29;5.50;1.00
9410;DHT22;4744;52.576;13.568;2023-02-28T15:25:57;5.50;1.00
9410;DHT22;4744;52.576;13.568;2023-02-28T15:28:25;5.50;1.00
9410;DHT22;4744;52.576;13.568;2023-02-28T15:30:55;5.40;1.00
9410;DHT22;4744;52.576;13.568;2023-02-28T15:33:25;5.40;1.00
9410;DHT22;4744;52.576;13.568;2023-02-28T15:36:05;5.30;1.00
9410;DHT22;4744;52.576;13.568;2023-02-28T15:38:34;5.30;1.00
9410;DHT22;4744;52.576;13.568;2023-02-28T15:41:02;5.20;1.00
9410;DHT22;4744;52.576;13.568;2023-02-28T15:43:34;5.20;1.00
9410;DHT22;4744;52.576;13.568;2023-02-28T15:46:03;5.20;1.00
9410;DHT22;4744;52.576;13.568;2023-02-28T15:48:34;5.10;1.00
9410;DHT22;4744;52.576;13.568;2023-02-28T15:51:06;5.10;1.00
9410;DHT22;4744;52.576;13.568;2023-02-28T15:53:36;5.10;1.00
9410;DHT22;4744;52.576;13.568;2023-02-28T15:56:06;5.10;1.00
9410;DHT22;4744;52.576;13.568;2023-02-28T15:58:35;5.10;1.00
9410;DHT22;4744;52.576;13.568;2023-02-28T16:01:16;5.00;1.00
9410;DHT22;4744;52.576;13.568;2023-02-28T16:03:47;5.00;1.00
9410;DHT22;4744;52.576;13.568;2023-02-28T16:06:38;4.90;1.00
9410;DHT22;4744;52.576;13.568;2023-02-28T16:09:08;4.80;1.00
9410;DHT22;4744;52.576;13.568;2023-02-28T16:11:38;4.80;1.00
9410;DHT22;4744;52.576;13.568;2023-02-28T16:14:08;4.80;1.00
9410;DHT22;4744;52.576;13.568;2023-02-28T16:16:42;4.70;1.00
9410;DHT22;4744;52.576;13.568;2023-02-28T16:19:11;4.70;1.00
9410;DHT22;4744;52.576;13.568;2023-02-28T16:21:38;4.60;1.00
9410;DHT22;4744;52.576;13.568;2023-02-28T16:24:06;4.50;1.00
9410;DHT22;4744;52.576;13.568;2023-02-28T16:26:33;4.40;1.00
9410;DHT22;4744;52.576;13.568;2023-02-28T16:29:03;4.40;1.00
9410;DHT22;4744;52.576;13.568;2023-02-28T16:31:31;4.40;1.00
9410;DHT22;4744;52.576;13.568;2023-02-28T16:33:59;4.30;1.00
9410;DHT22;4744;52.576;13.568;2023-02-28T16:36:29;4.20;1.00
9410;DHT22;4744;52.576;13.568;2023-02-28T16:38:56;4.10;1.00
9410;DHT22;4744;52.576;13.568;2023-02-28T16:41:25;4.00;1.00
9410;DHT22;4744;52.576;13.568;2023-02-28T16:43:54;3.90;1.00
9410;DHT22;4744;52.576;13.568;2023-02-28T16:46:26;3.90;1.00
9410;DHT22;4744;52.576;13.568;2023-02-28T16:48:53;3.80;1.00
9410;DHT22;4744;52.576;13.568;2023-02-28T16:51:20;3.70;1.00
9410;DHT22;4744;52.576;13.568;2023-02-28T16:53:49;3.60;1.00
9410;DHT22;4744;52.576;13.568;2023-02-28T16:56:18;3.50;1.00
9410;DHT22;4744;52.576;13.568;2023-02-28T16:58:46;3.40;1.00